sensor_id;sensor_type;location;lat;lon;timestamp;temperature;humidity
30128;DHT22;16942;53.196;6.592;2022-07-23T08:58:06;19.40;99.90
30128;DHT22;16942;53.196;6.592;2022-07-23T09:00:31;19.70;99.90
30128;DHT22;16942;53.196;6.592;2022-07-23T09:02:57;19.70;99.90
30128;DHT22;16942;53.196;6.592;2022-07-23T09:05:23;19.80;99.90
30128;DHT22;16942;53.196;6.592;2022-07-23T09:08:09;19.80;99.90
30128;DHT22;16942;53.196;6.592;2022-07-23T09:10:49;19.80;99.90
30128;DHT22;16942;53.196;6.592;2022-07-23T09:15:53;20.30;99.90
30128;DHT22;16942;53.196;6.592;2022-07-23T09:18:19;20.50;99.90
30128;DHT22;16942;53.196;6.592;2022-07-23T09:20:45;20.70;99.90
30128;DHT22;16942;53.196;6.592;2022-07-23T09:23:11;20.60;99.90
30128;DHT22;16942;53.196;6.592;2022-07-23T09:25:36;20.70;99.90
30128;DHT22;16942;53.196;6.592;2022-07-23T09:28:22;20.60;99.90
30128;DHT22;16942;53.196;6.592;2022-07-23T09:30:51;20.60;99.90
30128;DHT22;16942;53.196;6.592;2022-07-23T09:33:18;20.60;99.90
30128;DHT22;16942;53.196;6.592;2022-07-23T09:35:56;20.70;99.90
30128;DHT22;16942;53.196;6.592;2022-07-23T09:38:25;20.90;99.90
30128;DHT22;16942;53.196;6.592;2022-07-23T09:41:15;21.00;99.90
30128;DHT22;16942;53.196;6.592;2022-07-23T09:43:58;21.00;99.90
30128;DHT22;16942;53.196;6.592;2022-07-23T09:46:47;21.10;99.90
30128;DHT22;16942;53.196;6.592;2022-07-23T09:49:34;21.30;99.90
30128;DHT22;16942;53.196;6.592;2022-07-23T09:52:00;21.20;99.90
30128;DHT22;16942;53.196;6.592;2022-07-23T09:54:30;21.20;99.90
30128;DHT22;16942;53.196;6.592;2022-07-23T09:57:10;21.10;99.90
30128;DHT22;16942;53.196;6.592;2022-07-23T09:59:44;21.10;99.90
30128;DHT22;16942;53.196;6.592;2022-07-23T10:02:19;21.20;99.90
30128;DHT22;16942;53.196;6.592;2022-07-23T10:04:46;21.30;99.90
30128;DHT22;16942;53.196;6.592;2022-07-23T10:07:17;21.50;99.90
30128;DHT22;16942;53.196;6.592;2022-07-23T10:10:23;21.60;99.90
30128;DHT22;16942;53.196;6.592;2022-07-23T10:12:57;21.50;99.90
30128;DHT22;16942;53.196;6.592;2022-07-23T10:16:06;21.30;99.90
30128;DHT22;16942;53.196;6.592;2022-07-23T10:18:52;21.40;99.90
30128;DHT22;16942;53.196;6.592;2022-07-23T10:22:30;21.40;99.90
30128;DHT22;16942;53.196;6.592;2022-07-23T10:31:02;21.10;99.90
30128;DHT22;16942;53.196;6.592;2022-07-23T10:39:30;21.50;99.90
30128;DHT22;16942;53.196;6.592;2022-07-23T10:42:14;21.60;99.90
30128;DHT22;16942;53.196;6.592;2022-07-23T10:44:48;21.70;99.90
30128;DHT22;16942;53.196;6.592;2022-07-23T10:47:29;21.70;99.90
30128;DHT22;16942;53.196;6.592;2022-07-23T10:53:11;22.00;99.90
30128;DHT22;16942;53.196;6.592;2022-07-23T10:55:46;22.30;99.90
30128;DHT22;16942;53.196;6.592;2022-07-23T10:58:19;22.30;99.90
30128;DHT22;16942;53.196;6.592;2022-07-23T11:00:45;22.10;99.90
30128;DHT22;16942;53.196;6.592;2022-07-23T11:03:33;21.80;99.90
30128;DHT22;16942;53.196;6.592;2022-07-23T11:06:03;21.60;99.90
30128;DHT22;16942;53.196;6.592;2022-07-23T11:08:29;21.60;99.90
30128;DHT22;16942;53.196;6.592;2022-07-23T11:11:12;21.50;99.90
30128;DHT22;16942;53.196;6.592;2022-07-23T11:14:57;21.70;99.90
30128;DHT22;16942;53.196;6.592;2022-07-23T11:17:26;21.80;99.90
30128;DHT22;16942;53.196;6.592;2022-07-23T11:32:34;20.80;99.90
30128;DHT22;16942;53.196;6.592;2022-07-23T11:35:31;20.90;99.90
30128;DHT22;16942;53.196;6.592;2022-07-23T11:41:26;21.50;99.90
30128;DHT22;16942;53.196;6.592;2022-07-23T11:43:55;21.80;99.90
30128;DHT22;16942;53.196;6.592;2022-07-23T11:46:21;21.90;99.90
30128;DHT22;16942;53.196;6.592;2022-07-23T11:49:02;22.00;99.90
30128;DHT22;16942;53.196;6.592;2022-07-23T11:51:35;22.00;99.90
30128;DHT22;16942;53.196;6.592;2022-07-23T11:54:25;22.30;99.90
30128;DHT22;16942;53.196;6.592;2022-07-23T11:57:02;22.40;99.90
30128;DHT22;16942;53.196;6.592;2022-07-23T11:59:33;22.50;99.90
30128;DHT22;16942;53.196;6.592;2022-07-23T12:02:09;22.60;99.90
30128;DHT22;16942;53.196;6.592;2022-07-23T12:04:55;22.70;99.90
30128;DHT22;16942;53.196;6.592;2022-07-23T12:07:44;22.60;99.90
30128;DHT22;16942;53.196;6.592;2022-07-23T12:13:26;22.70;99.90
30128;DHT22;16942;53.196;6.592;2022-07-23T12:16:07;23.20;99.90
30128;DHT22;16942;53.196;6.592;2022-07-23T12:18:34;23.50;99.90
30128;DHT22;16942;53.196;6.592;2022-07-23T12:21:03;23.50;99.90
30128;DHT22;16942;53.196;6.592;2022-07-23T12:23:29;23.70;99.90
30128;DHT22;16942;53.196;6.592;2022-07-23T12:25:55;23.80;99.90
30128;DHT22;16942;53.196;6.592;2022-07-23T12:28:33;24.10;99.90
30128;DHT22;16942;53.196;6.592;2022-07-23T12:30:59;24.30;99.90
30128;DHT22;16942;53.196;6.592;2022-07-23T12:33:32;24.40;99.90
30128;DHT22;16942;53.196;6.592;2022-07-23T12:36:02;24.90;99.90
30128;DHT22;16942;53.196;6.592;2022-07-23T12:38:43;25.00;99.90
30128;DHT22;16942;53.196;6.592;2022-07-23T12:41:16;25.10;99.90
30128;DHT22;16942;53.196;6.592;2022-07-23T12:43:43;25.10;99.90
30128;DHT22;16942;53.196;6.592;2022-07-23T12:46:16;25.10;99.90
30128;DHT22;16942;53.196;6.592;2022-07-23T12:51:26;25.00;99.90
30128;DHT22;16942;53.196;6.592;2022-07-23T12:54:07;25.00;99.90
30128;DHT22;16942;53.196;6.592;2022-07-23T12:56:39;25.00;99.90
30128;DHT22;16942;53.196;6.592;2022-07-23T12:59:13;25.20;99.90
30128;DHT22;16942;53.196;6.592;2022-07-23T13:01:42;25.40;99.90
30128;DHT22;16942;53.196;6.592;2022-07-23T13:04:32;25.50;99.90
30128;DHT22;16942;53.196;6.592;2022-07-23T13:07:00;25.30;99.90
30128;DHT22;16942;53.196;6.592;2022-07-23T13:09:28;25.30;99.90
30128;DHT22;16942;53.196;6.592;2022-07-23T13:11:56;25.10;99.90
30128;DHT22;16942;53.196;6.592;2022-07-23T13:14:37;25.10;99.90
30128;DHT22;16942;53.196;6.592;2022-07-23T13:17:46;25.40;99.90
30128;DHT22;16942;53.196;6.592;2022-07-23T13:20:28;25.50;99.90
30128;DHT22;16942;53.196;6.592;2022-07-23T13:23:16;25.80;99.90
30128;DHT22;16942;53.196;6.592;2022-07-23T13:26:02;25.80;99.90
30128;DHT22;16942;53.196;6.592;2022-07-23T13:28:37;25.70;99.90
30128;DHT22;16942;53.196;6.592;2022-07-23T13:31:07;25.80;99.90
30128;DHT22;16942;53.196;6.592;2022-07-23T13:33:46;26.00;99.90
30128;DHT22;16942;53.196;6.592;2022-07-23T13:36:31;26.30;99.90
30128;DHT22;16942;53.196;6.592;2022-07-23T13:39:17;26.90;99.90
30128;DHT22;16942;53.196;6.592;2022-07-23T13:41:43;27.20;99.90
30128;DHT22;16942;53.196;6.592;2022-07-23T13:44:24;27.40;99.90
30128;DHT22;16942;53.196;6.592;2022-07-23T13:50:38;27.30;99.90
30128;DHT22;16942;53.196;6.592;2022-07-23T13:53:33;27.70;99.90
30128;DHT22;16942;53.196;6.592;2022-07-23T13:56:41;28.00;99.90
30128;DHT22;16942;53.196;6.592;2022-07-23T13:59:36;27.60;99.90
30128;DHT22;16942;53.196;6.592;2022-07-23T14:02:44;27.10;99.90
30128;DHT22;16942;53.196;6.592;2022-07-23T14:05:46;26.60;99.90
30128;DHT22;16942;53.196;6.592;2022-07-23T14:08:21;26.70;99.90
30128;DHT22;16942;53.196;6.592;2022-07-23T14:11:05;26.70;99.90
30128;DHT22;16942;53.196;6.592;2022-07-23T14:14:23;26.80;99.90
30128;DHT22;16942;53.196;6.592;2022-07-23T14:17:11;26.40;99.90
30128;DHT22;16942;53.196;6.592;2022-07-23T14:19:44;26.20;99.90
30128;DHT22;16942;53.196;6.592;2022-07-23T14:28:25;25.80;99.90
30128;DHT22;16942;53.196;6.592;2022-07-23T14:30:57;25.80;99.90
30128;DHT22;16942;53.196;6.592;2022-07-23T14:33:26;26.10;99.90
30128;DHT22;16942;53.196;6.592;2022-07-23T14:36:03;26.60;99.90
30128;DHT22;16942;53.196;6.592;2022-07-23T14:42:12;27.30;99.90
30128;DHT22;16942;53.196;6.592;2022-07-23T14:45:01;27.70;99.90
30128;DHT22;16942;53.196;6.592;2022-07-23T14:47:49;28.10;99.90
30128;DHT22;16942;53.196;6.592;2022-07-23T14:50:52;28.30;99.90
30128;DHT22;16942;53.196;6.592;2022-07-23T14:53:45;28.00;99.90
30128;DHT22;16942;53.196;6.592;2022-07-23T14:56:33;27.40;99.90
30128;DHT22;16942;53.196;6.592;2022-07-23T14:59:13;26.90;99.90
30128;DHT22;16942;53.196;6.592;2022-07-23T15:02:00;26.50;99.90
30128;DHT22;16942;53.196;6.592;2022-07-23T15:04:51;26.10;99.90
30128;DHT22;16942;53.196;6.592;2022-07-23T15:07:56;25.80;99.90
30128;DHT22;16942;53.196;6.592;2022-07-23T15:10:26;25.30;99.90
30128;DHT22;16942;53.196;6.592;2022-07-23T15:13:06;25.20;99.90
30128;DHT22;16942;53.196;6.592;2022-07-23T15:15:44;25.00;99.90
30128;DHT22;16942;53.196;6.592;2022-07-23T15:18:30;24.90;99.90
30128;DHT22;16942;53.196;6.592;2022-07-23T15:21:00;24.80;99.90
30128;DHT22;16942;53.196;6.592;2022-07-23T15:23:27;24.70;99.90
30128;DHT22;16942;53.196;6.592;2022-07-23T15:26:02;24.80;99.90
30128;DHT22;16942;53.196;6.592;2022-07-23T15:28:28;25.10;99.90
30128;DHT22;16942;53.196;6.592;2022-07-23T15:31:14;25.60;99.90
30128;DHT22;16942;53.196;6.592;2022-07-23T15:33:57;26.20;99.90
30128;DHT22;16942;53.196;6.592;2022-07-23T15:36:23;26.70;99.90
30128;DHT22;16942;53.196;6.592;2022-07-23T15:38:49;26.90;99.90
30128;DHT22;16942;53.196;6.592;2022-07-23T15:41:17;27.00;99.90
30128;DHT22;16942;53.196;6.592;2022-07-23T15:43:51;27.40;99.90
30128;DHT22;16942;53.196;6.592;2022-07-23T15:46:22;27.60;99.90
30128;DHT22;16942;53.196;6.592;2022-07-23T15:48:49;27.70;99.90
30128;DHT22;16942;53.196;6.592;2022-07-23T15:51:34;27.90;99.90
30128;DHT22;16942;53.196;6.592;2022-07-23T15:54:49;27.90;99.90
30128;DHT22;16942;53.196;6.592;2022-07-23T15:58:14;27.90;99.90
30128;DHT22;16942;53.196;6.592;2022-07-23T16:00:40;28.00;99.90
30128;DHT22;16942;53.196;6.592;2022-07-23T16:03:17;27.90;99.90
30128;DHT22;16942;53.196;6.592;2022-07-23T16:08:51;27.80;99.90
30128;DHT22;16942;53.196;6.592;2022-07-23T16:11:17;27.70;99.90
30128;DHT22;16942;53.196;6.592;2022-07-23T16:13:43;27.80;99.90
30128;DHT22;16942;53.196;6.592;2022-07-23T16:16:10;27.70;99.90
30128;DHT22;16942;53.196;6.592;2022-07-23T16:18:37;27.80;99.90
30128;DHT22;16942;53.196;6.592;2022-07-23T16:21:03;27.90;99.90
30128;DHT22;16942;53.196;6.592;2022-07-23T16:23:29;27.80;99.90
30128;DHT22;16942;53.196;6.592;2022-07-23T16:25:55;27.30;99.90
30128;DHT22;16942;53.196;6.592;2022-07-23T16:28:20;27.10;99.90
30128;DHT22;16942;53.196;6.592;2022-07-23T16:30:46;26.90;99.90
30128;DHT22;16942;53.196;6.592;2022-07-23T16:33:12;27.10;99.90
30128;DHT22;16942;53.196;6.592;2022-07-23T16:35:38;27.10;99.90
30128;DHT22;16942;53.196;6.592;2022-07-23T16:38:04;27.20;99.90
30128;DHT22;16942;53.196;6.592;2022-07-23T16:40:30;27.40;99.90
30128;DHT22;16942;53.196;6.592;2022-07-23T16:42:57;27.50;99.90
30128;DHT22;16942;53.196;6.592;2022-07-23T16:45:23;27.50;99.90
30128;DHT22;16942;53.196;6.592;2022-07-23T16:47:49;27.50;99.90
30128;DHT22;16942;53.196;6.592;2022-07-23T16:50:16;27.30;99.90
30128;DHT22;16942;53.196;6.592;2022-07-23T16:52:42;27.10;99.90
30128;DHT22;16942;53.196;6.592;2022-07-23T16:55:08;26.90;99.90
30128;DHT22;16942;53.196;6.592;2022-07-23T16:57:34;26.90;99.90
30128;DHT22;16942;53.196;6.592;2022-07-23T17:00:00;26.80;99.90
30128;DHT22;16942;53.196;6.592;2022-07-23T17:02:33;26.80;99.90
30128;DHT22;16942;53.196;6.592;2022-07-23T17:05:00;26.60;99.90
30128;DHT22;16942;53.196;6.592;2022-07-23T17:07:27;26.50;99.90
30128;DHT22;16942;53.196;6.592;2022-07-23T17:09:55;26.50;99.90
30128;DHT22;16942;53.196;6.592;2022-07-23T17:12:48;26.40;99.90
30128;DHT22;16942;53.196;6.592;2022-07-23T17:15:19;26.30;99.90
30128;DHT22;16942;53.196;6.592;2022-07-23T17:17:45;26.20;99.90
30128;DHT22;16942;53.196;6.592;2022-07-23T17:20:11;26.10;99.90
30128;DHT22;16942;53.196;6.592;2022-07-23T17:22:37;26.00;99.90
30128;DHT22;16942;53.196;6.592;2022-07-23T17:25:05;26.00;99.90
30128;DHT22;16942;53.196;6.592;2022-07-23T17:27:35;25.90;99.90
30128;DHT22;16942;53.196;6.592;2022-07-23T17:30:02;25.70;99.90
30128;DHT22;16942;53.196;6.592;2022-07-23T17:32:28;25.60;99.90
30128;DHT22;16942;53.196;6.592;2022-07-23T17:34:53;25.50;99.90
30128;DHT22;16942;53.196;6.592;2022-07-23T17:37:19;25.40;99.90
30128;DHT22;16942;53.196;6.592;2022-07-23T17:39:45;25.30;99.90
30128;DHT22;16942;53.196;6.592;2022-07-23T17:42:10;25.30;99.90
30128;DHT22;16942;53.196;6.592;2022-07-23T17:44:36;25.10;99.90
30128;DHT22;16942;53.196;6.592;2022-07-23T17:47:02;25.00;99.90
30128;DHT22;16942;53.196;6.592;2022-07-23T17:49:28;24.90;99.90
30128;DHT22;16942;53.196;6.592;2022-07-23T17:51:53;24.80;99.90
30128;DHT22;16942;53.196;6.592;2022-07-23T17:54:19;24.70;99.90
30128;DHT22;16942;53.196;6.592;2022-07-23T17:56:44;24.60;99.90
30128;DHT22;16942;53.196;6.592;2022-07-23T17:59:10;24.30;99.90
30128;DHT22;16942;53.196;6.592;2022-07-23T18:01:37;24.10;99.90
30128;DHT22;16942;53.196;6.592;2022-07-23T18:04:03;23.80;99.90
30128;DHT22;16942;53.196;6.592;2022-07-23T18:06:29;23.60;99.90
30128;DHT22;16942;53.196;6.592;2022-07-23T18:08:55;23.40;99.90
30128;DHT22;16942;53.196;6.592;2022-07-23T18:11:20;23.10;99.90
30128;DHT22;16942;53.196;6.592;2022-07-23T18:13:46;22.90;99.90
30128;DHT22;16942;53.196;6.592;2022-07-23T18:16:12;22.70;99.90
30128;DHT22;16942;53.196;6.592;2022-07-23T18:18:38;22.60;99.90
30128;DHT22;16942;53.196;6.592;2022-07-23T18:21:04;22.50;99.90
30128;DHT22;16942;53.196;6.592;2022-07-23T18:23:30;22.50;99.90
30128;DHT22;16942;53.196;6.592;2022-07-23T18:25:56;22.30;99.90
30128;DHT22;16942;53.196;6.592;2022-07-23T18:28:22;22.20;99.90
30128;DHT22;16942;53.196;6.592;2022-07-23T18:30:47;22.20;99.90
30128;DHT22;16942;53.196;6.592;2022-07-23T18:33:13;22.10;99.90
30128;DHT22;16942;53.196;6.592;2022-07-23T18:35:40;22.10;99.90
30128;DHT22;16942;53.196;6.592;2022-07-23T18:38:06;22.00;99.90
30128;DHT22;16942;53.196;6.592;2022-07-23T18:40:32;22.00;99.90
30128;DHT22;16942;53.196;6.592;2022-07-23T18:42:58;21.90;99.90
30128;DHT22;16942;53.196;6.592;2022-07-23T18:45:24;21.80;99.90
30128;DHT22;16942;53.196;6.592;2022-07-23T18:47:51;21.70;99.90
30128;DHT22;16942;53.196;6.592;2022-07-23T18:50:17;21.60;99.90
30128;DHT22;16942;53.196;6.592;2022-07-23T18:52:44;21.60;99.90
30128;DHT22;16942;53.196;6.592;2022-07-23T18:55:10;21.50;99.90
30128;DHT22;16942;53.196;6.592;2022-07-23T18:57:35;21.40;99.90
30128;DHT22;16942;53.196;6.592;2022-07-23T19:00:03;21.30;99.90
30128;DHT22;16942;53.196;6.592;2022-07-23T19:02:29;21.30;99.90
30128;DHT22;16942;53.196;6.592;2022-07-23T19:04:54;21.20;99.90
30128;DHT22;16942;53.196;6.592;2022-07-23T19:07:20;21.10;99.90
30128;DHT22;16942;53.196;6.592;2022-07-23T19:09:46;21.00;99.90
30128;DHT22;16942;53.196;6.592;2022-07-23T19:12:12;20.90;99.90
30128;DHT22;16942;53.196;6.592;2022-07-23T19:14:38;20.90;99.90
30128;DHT22;16942;53.196;6.592;2022-07-23T19:17:04;20.80;99.90
30128;DHT22;16942;53.196;6.592;2022-07-23T19:19:30;20.80;99.90
30128;DHT22;16942;53.196;6.592;2022-07-23T19:21:55;20.70;99.90
30128;DHT22;16942;53.196;6.592;2022-07-23T19:24:21;20.60;99.90
30128;DHT22;16942;53.196;6.592;2022-07-23T19:26:46;20.50;99.90
30128;DHT22;16942;53.196;6.592;2022-07-23T19:29:13;20.50;99.90
30128;DHT22;16942;53.196;6.592;2022-07-23T19:31:40;20.40;99.90
30128;DHT22;16942;53.196;6.592;2022-07-23T19:34:13;20.30;99.90
30128;DHT22;16942;53.196;6.592;2022-07-23T19:36:41;20.20;99.90
30128;DHT22;16942;53.196;6.592;2022-07-23T19:39:17;20.10;99.90
30128;DHT22;16942;53.196;6.592;2022-07-23T19:41:43;20.00;99.90
30128;DHT22;16942;53.196;6.592;2022-07-23T19:44:09;20.00;99.90
30128;DHT22;16942;53.196;6.592;2022-07-23T19:46:36;19.90;99.90
30128;DHT22;16942;53.196;6.592;2022-07-23T19:49:02;19.80;99.90
30128;DHT22;16942;53.196;6.592;2022-07-23T19:51:30;19.80;99.90
30128;DHT22;16942;53.196;6.592;2022-07-23T19:53:57;19.70;99.90
30128;DHT22;16942;53.196;6.592;2022-07-23T19:56:23;19.60;99.90
30128;DHT22;16942;53.196;6.592;2022-07-23T19:58:49;19.60;99.90
30128;DHT22;16942;53.196;6.592;2022-07-23T20:01:15;19.50;99.90
30128;DHT22;16942;53.196;6.592;2022-07-23T20:03:41;19.40;99.90
30128;DHT22;16942;53.196;6.592;2022-07-23T20:06:07;19.50;99.90
30128;DHT22;16942;53.196;6.592;2022-07-23T20:08:33;19.40;99.90
30128;DHT22;16942;53.196;6.592;2022-07-23T20:10:59;19.30;99.90
30128;DHT22;16942;53.196;6.592;2022-07-23T20:13:24;19.30;99.90
30128;DHT22;16942;53.196;6.592;2022-07-23T20:15:50;19.20;99.90
30128;DHT22;16942;53.196;6.592;2022-07-23T20:18:17;19.10;99.90
30128;DHT22;16942;53.196;6.592;2022-07-23T20:20:45;19.10;99.90
30128;DHT22;16942;53.196;6.592;2022-07-23T20:23:11;19.00;99.90
30128;DHT22;16942;53.196;6.592;2022-07-23T20:25:37;18.90;99.90
30128;DHT22;16942;53.196;6.592;2022-07-23T20:28:06;18.80;99.90
30128;DHT22;16942;53.196;6.592;2022-07-23T20:30:32;18.80;99.90
30128;DHT22;16942;53.196;6.592;2022-07-23T20:32:58;18.80;99.90
30128;DHT22;16942;53.196;6.592;2022-07-23T20:35:24;18.70;99.90
30128;DHT22;16942;53.196;6.592;2022-07-23T20:37:50;18.70;99.90
30128;DHT22;16942;53.196;6.592;2022-07-23T20:40:22;18.60;99.90
30128;DHT22;16942;53.196;6.592;2022-07-23T20:42:55;18.60;99.90
30128;DHT22;16942;53.196;6.592;2022-07-23T20:45:21;18.50;99.90
30128;DHT22;16942;53.196;6.592;2022-07-23T20:47:48;18.50;99.90
30128;DHT22;16942;53.196;6.592;2022-07-23T20:50:21;18.40;99.90
30128;DHT22;16942;53.196;6.592;2022-07-23T20:52:48;18.40;99.90
30128;DHT22;16942;53.196;6.592;2022-07-23T20:55:15;18.30;99.90
30128;DHT22;16942;53.196;6.592;2022-07-23T20:57:41;18.30;99.90
30128;DHT22;16942;53.196;6.592;2022-07-23T21:00:10;18.20;99.90
30128;DHT22;16942;53.196;6.592;2022-07-23T21:02:43;18.20;99.90
30128;DHT22;16942;53.196;6.592;2022-07-23T21:05:10;18.20;99.90
30128;DHT22;16942;53.196;6.592;2022-07-23T21:07:58;18.10;99.90
30128;DHT22;16942;53.196;6.592;2022-07-23T21:10:29;18.10;99.90
30128;DHT22;16942;53.196;6.592;2022-07-23T21:12:55;18.10;99.90
30128;DHT22;16942;53.196;6.592;2022-07-23T21:15:23;18.10;99.90
30128;DHT22;16942;53.196;6.592;2022-07-23T21:17:51;18.00;99.90
30128;DHT22;16942;53.196;6.592;2022-07-23T21:20:17;17.90;99.90
30128;DHT22;16942;53.196;6.592;2022-07-23T21:22:44;17.90;99.90
30128;DHT22;16942;53.196;6.592;2022-07-23T21:25:11;17.90;99.90
30128;DHT22;16942;53.196;6.592;2022-07-23T21:27:40;17.90;99.90
30128;DHT22;16942;53.196;6.592;2022-07-23T21:30:07;17.80;99.90
30128;DHT22;16942;53.196;6.592;2022-07-23T21:32:35;17.80;99.90
30128;DHT22;16942;53.196;6.592;2022-07-23T21:35:07;17.80;99.90
30128;DHT22;16942;53.196;6.592;2022-07-23T21:37:45;17.80;99.90
30128;DHT22;16942;53.196;6.592;2022-07-23T21:40:47;17.80;99.90
30128;DHT22;16942;53.196;6.592;2022-07-23T21:43:20;17.70;99.90
30128;DHT22;16942;53.196;6.592;2022-07-23T21:46:03;17.70;99.90
30128;DHT22;16942;53.196;6.592;2022-07-23T21:49:18;17.70;99.90
30128;DHT22;16942;53.196;6.592;2022-07-23T21:52:02;17.60;99.90
30128;DHT22;16942;53.196;6.592;2022-07-23T21:54:28;17.50;99.90
30128;DHT22;16942;53.196;6.592;2022-07-23T21:57:00;17.50;99.90
30128;DHT22;16942;53.196;6.592;2022-07-23T21:59:40;17.40;99.90
30128;DHT22;16942;53.196;6.592;2022-07-23T22:02:29;17.30;99.90
30128;DHT22;16942;53.196;6.592;2022-07-23T22:05:08;17.30;99.90
30128;DHT22;16942;53.196;6.592;2022-07-23T22:07:37;17.30;99.90
30128;DHT22;16942;53.196;6.592;2022-07-23T22:10:15;17.20;99.90
30128;DHT22;16942;53.196;6.592;2022-07-23T22:13:06;17.20;99.90
30128;DHT22;16942;53.196;6.592;2022-07-23T22:16:03;17.20;99.90
30128;DHT22;16942;53.196;6.592;2022-07-23T22:18:30;17.10;99.90
30128;DHT22;16942;53.196;6.592;2022-07-23T22:20:56;17.00;99.90
30128;DHT22;16942;53.196;6.592;2022-07-23T22:23:22;17.00;99.90
30128;DHT22;16942;53.196;6.592;2022-07-23T22:25:48;17.00;99.90
30128;DHT22;16942;53.196;6.592;2022-07-23T22:28:13;17.00;99.90
30128;DHT22;16942;53.196;6.592;2022-07-23T22:30:39;17.00;99.90
30128;DHT22;16942;53.196;6.592;2022-07-23T22:33:06;17.00;99.90
30128;DHT22;16942;53.196;6.592;2022-07-23T22:35:35;17.00;99.90
30128;DHT22;16942;53.196;6.592;2022-07-23T22:38:04;17.00;99.90
30128;DHT22;16942;53.196;6.592;2022-07-23T22:40:30;16.90;99.90
30128;DHT22;16942;53.196;6.592;2022-07-23T22:42:59;16.90;99.90
30128;DHT22;16942;53.196;6.592;2022-07-23T22:45:26;16.80;99.90
30128;DHT22;16942;53.196;6.592;2022-07-23T22:47:52;16.90;99.90
30128;DHT22;16942;53.196;6.592;2022-07-23T22:50:18;16.80;99.90
30128;DHT22;16942;53.196;6.592;2022-07-23T22:52:45;16.80;99.90
30128;DHT22;16942;53.196;6.592;2022-07-23T22:55:11;16.80;99.90
30128;DHT22;16942;53.196;6.592;2022-07-23T22:57:37;16.80;99.90
30128;DHT22;16942;53.196;6.592;2022-07-23T23:00:05;16.80;99.90
30128;DHT22;16942;53.196;6.592;2022-07-23T23:02:31;16.70;99.90
30128;DHT22;16942;53.196;6.592;2022-07-23T23:04:57;16.70;99.90
30128;DHT22;16942;53.196;6.592;2022-07-23T23:07:22;16.60;99.90
30128;DHT22;16942;53.196;6.592;2022-07-23T23:09:48;16.60;99.90
30128;DHT22;16942;53.196;6.592;2022-07-23T23:12:14;16.50;99.90
30128;DHT22;16942;53.196;6.592;2022-07-23T23:14:39;16.60;99.90
30128;DHT22;16942;53.196;6.592;2022-07-23T23:17:05;16.50;99.90
30128;DHT22;16942;53.196;6.592;2022-07-23T23:19:31;16.50;99.90
30128;DHT22;16942;53.196;6.592;2022-07-23T23:21:56;16.50;99.90
30128;DHT22;16942;53.196;6.592;2022-07-23T23:24:22;16.50;99.90
30128;DHT22;16942;53.196;6.592;2022-07-23T23:26:48;16.40;99.90
30128;DHT22;16942;53.196;6.592;2022-07-23T23:29:14;16.40;99.90
30128;DHT22;16942;53.196;6.592;2022-07-23T23:31:39;16.30;99.90
30128;DHT22;16942;53.196;6.592;2022-07-23T23:34:05;16.30;99.90
30128;DHT22;16942;53.196;6.592;2022-07-23T23:36:30;16.40;99.90
30128;DHT22;16942;53.196;6.592;2022-07-23T23:38:57;16.30;99.90
30128;DHT22;16942;53.196;6.592;2022-07-23T23:41:23;16.20;99.90
30128;DHT22;16942;53.196;6.592;2022-07-23T23:43:50;16.30;99.90
30128;DHT22;16942;53.196;6.592;2022-07-23T23:46:17;16.20;99.90
30128;DHT22;16942;53.196;6.592;2022-07-23T23:48:43;16.20;99.90
30128;DHT22;16942;53.196;6.592;2022-07-23T23:51:09;16.20;99.90
30128;DHT22;16942;53.196;6.592;2022-07-23T23:53:34;16.20;99.90
30128;DHT22;16942;53.196;6.592;2022-07-23T23:56:00;16.20;99.90
30128;DHT22;16942;53.196;6.592;2022-07-23T23:58:26;16.20;99.90
